Time;durP1;ratioP1;P1;durP2;ratioP2;P2;SDS_P1;SDS_P2;PMS_P1;PMS_P2;Temp;Humidity;BMP_temperature;BMP_pressure;BME280_temperature;BME280_humidity;BME280_pressure;Samples;Min_cycle;Max_cycle;Signal;HPM_P1;HPM_P2
2022/04/23 00:02:15;;;;;;;0.10;0.10;;;;;;;;;;5088703;28;20248;-72
2022/04/23 00:04:41;;;;;;;0.10;0.10;;;;;;;;;;5082983;28;20199;-72
2022/04/23 00:07:08;;;;;;;0.10;0.10;;;;;;;;;;5088733;28;20239;-72
2022/04/23 00:09:34;;;;;;;0.10;0.10;;;;;;;;;;5083004;28;20321;-73
2022/04/23 00:12:01;;;;;;;0.10;0.10;;;;;;;;;;5088278;28;20248;-73
2022/04/23 00:14:29;;;;;;;0.10;0.10;;;;;;;;;;5083174;28;20539;-73
2022/04/23 00:16:57;;;;;;;0.10;0.10;;;;;;;;;;5087227;28;20290;-73
2022/04/23 00:19:23;;;;;;;0.10;0.10;;;;;;;;;;5083881;28;20298;-72
2022/04/23 00:21:50;;;;;;;0.10;0.10;;;;;;;;;;5086596;28;20459;-72
2022/04/23 00:24:16;;;;;;;0.10;0.10;;;;;;;;;;5084760;28;20214;-71
2022/04/23 00:26:42;;;;;;;0.10;0.10;;;;;;;;;;5085061;28;20289;-74
2022/04/23 00:29:09;;;;;;;0.10;0.10;;;;;;;;;;5085947;28;20453;-72
2022/04/23 00:31:37;;;;;;;0.10;0.10;;;;;;;;;;5084305;28;20386;-71
2022/04/23 00:34:03;;;;;;;0.10;0.10;;;;;;;;;;5086293;28;20229;-72
2022/04/23 00:36:29;;;;;;;0.10;0.10;;;;;;;;;;5083376;28;20290;-72
2022/04/23 00:38:56;;;;;;;0.10;0.10;;;;;;;;;;5087174;28;20232;-72
2022/04/23 00:44:07;;;;;;;0.10;0.10;;;;;;;;;;5085755;28;20189;-73
2022/04/23 00:46:33;;;;;;;0.10;0.10;;;;;;;;;;5084105;28;20290;-71
2022/04/23 00:49:03;;;;;;;0.10;0.10;;;;;;;;;;5086498;28;20240;-73
2022/04/23 00:51:30;;;;;;;0.10;0.10;;;;;;;;;;5083228;28;20556;-71
2022/04/23 00:53:57;;;;;;;0.10;0.10;;;;;;;;;;5087362;28;20230;-71
2022/04/23 00:56:26;;;;;;;0.10;0.10;;;;;;;;;;5082621;28;20578;-71
2022/04/23 00:58:52;;;;;;;0.10;0.10;;;;;;;;;;5087793;28;20210;-72
2022/04/23 01:01:23;;;;;;;0.10;0.10;;;;;;;;;;5081794;28;20252;-72
2022/04/23 01:03:50;;;;;;;0.10;0.10;;;;;;;;;;5088140;28;20376;-72
2022/04/23 01:06:18;;;;;;;0.10;0.10;;;;;;;;;;5081610;28;20241;-74
2022/04/23 01:08:45;;;;;;;0.10;0.10;;;;;;;;;;5088601;28;20207;-72
2022/04/23 01:11:11;;;;;;;0.10;0.10;;;;;;;;;;5080600;28;20298;-72
2022/04/23 01:13:37;;;;;;;0.10;0.10;;;;;;;;;;5089244;28;20224;-72
2022/04/23 01:16:07;;;;;;;0.10;0.10;;;;;;;;;;5079981;28;20245;-72
2022/04/23 01:18:34;;;;;;;0.10;0.10;;;;;;;;;;5090012;28;20240;-72
2022/04/23 01:21:02;;;;;;;0.10;0.10;;;;;;;;;;5079133;28;20269;-73
2022/04/23 01:23:30;;;;;;;0.10;0.10;;;;;;;;;;5090551;28;20202;-72
2022/04/23 01:25:57;;;;;;;0.10;0.10;;;;;;;;;;5078699;28;20588;-71
2022/04/23 01:28:23;;;;;;;0.10;0.10;;;;;;;;;;5090927;28;20210;-72
2022/04/23 01:30:50;;;;;;;0.10;0.10;;;;;;;;;;5077698;28;20250;-72
2022/04/23 01:33:17;;;;;;;0.10;0.10;;;;;;;;;;5092068;28;20289;-72
2022/04/23 01:35:43;;;;;;;0.10;0.10;;;;;;;;;;5076997;28;20307;-71
2022/04/23 01:38:11;;;;;;;0.10;0.10;;;;;;;;;;5094592;28;20229;-73
2022/04/23 01:40:37;;;;;;;0.10;0.10;;;;;;;;;;5079448;28;20248;-73
2022/04/23 01:43:04;;;;;;;0.10;0.10;;;;;;;;;;5097539;28;20493;-73
2022/04/23 01:45:30;;;;;;;0.10;0.10;;;;;;;;;;5079033;28;20254;-72
2022/04/23 01:47:56;;;;;;;0.10;0.10;;;;;;;;;;5098281;28;20425;-71
2022/04/23 01:50:23;;;;;;;0.10;0.10;;;;;;;;;;5078171;28;20251;-72
2022/04/23 01:52:50;;;;;;;0.10;0.10;;;;;;;;;;5098597;28;20503;-72
2022/04/23 01:55:18;;;;;;;0.10;0.10;;;;;;;;;;5076740;28;20279;-72
2022/04/23 01:57:44;;;;;;;0.10;0.10;;;;;;;;;;5099694;28;20255;-73
2022/04/23 02:00:13;;;;;;;0.10;0.10;;;;;;;;;;5076330;28;20204;-73
2022/04/23 02:02:40;;;;;;;0.10;0.10;;;;;;;;;;5100265;28;20206;-72
2022/04/23 02:05:07;;;;;;;0.10;0.10;;;;;;;;;;5075244;28;20212;-73
2022/04/23 02:07:36;;;;;;;0.10;0.10;;;;;;;;;;5100566;28;20207;-72
2022/04/23 02:10:02;;;;;;;0.10;0.10;;;;;;;;;;5084878;28;20210;-72
2022/04/23 02:12:30;;;;;;;0.10;0.10;;;;;;;;;;5090870;28;20288;-72
2022/04/23 02:14:57;;;;;;;0.20;0.20;;;;;;;;;;5084904;28;20298;-72
2022/04/23 02:17:23;;;;;;;0.10;0.10;;;;;;;;;;5090777;28;20269;-72
2022/04/23 02:19:49;;;;;;;0.10;0.10;;;;;;;;;;5084923;28;20211;-73
2022/04/23 02:22:16;;;;;;;0.20;0.20;;;;;;;;;;5090616;28;20266;-73
2022/04/23 02:24:42;;;;;;;0.10;0.10;;;;;;;;;;5085097;28;20202;-72
2022/04/23 02:27:08;;;;;;;0.10;0.10;;;;;;;;;;5090531;28;20472;-73
2022/04/23 02:29:36;;;;;;;0.10;0.10;;;;;;;;;;5084737;28;20254;-72
2022/04/23 02:32:02;;;;;;;0.10;0.10;;;;;;;;;;5089748;28;20244;-72
2022/04/23 02:34:28;;;;;;;0.10;0.10;;;;;;;;;;5085409;28;20290;-73
2022/04/23 02:36:56;;;;;;;0.10;0.10;;;;;;;;;;5088970;28;20306;-72
2022/04/23 02:39:23;;;;;;;0.10;0.10;;;;;;;;;;5086066;28;20209;-72
2022/04/23 02:41:49;;;;;;;0.10;0.10;;;;;;;;;;5088135;28;20271;-72
2022/04/23 02:44:15;;;;;;;0.10;0.10;;;;;;;;;;5086633;28;20200;-72
2022/04/23 02:46:45;;;;;;;0.10;0.10;;;;;;;;;;5086938;28;20241;-72
2022/04/23 02:49:11;;;;;;;0.10;0.10;;;;;;;;;;5086996;28;20252;-72
2022/04/23 02:51:38;;;;;;;0.10;0.10;;;;;;;;;;5086456;28;20234;-72
2022/04/23 02:54:04;;;;;;;0.10;0.10;;;;;;;;;;5087807;28;20385;-73
2022/04/23 02:56:33;;;;;;;0.20;0.20;;;;;;;;;;5085351;28;20291;-72
2022/04/23 02:59:02;;;;;;;0.10;0.10;;;;;;;;;;5088589;28;20408;-71
2022/04/23 03:01:29;;;;;;;0.10;0.10;;;;;;;;;;5084870;28;20429;-72
2022/04/23 03:03:58;;;;;;;0.10;0.10;;;;;;;;;;5088893;28;20374;-72
2022/04/23 03:06:28;;;;;;;0.10;0.10;;;;;;;;;;5084301;28;20240;-73
2022/04/23 03:08:55;;;;;;;0.10;0.10;;;;;;;;;;5089002;28;20227;-71
2022/04/23 03:11:21;;;;;;;0.10;0.10;;;;;;;;;;5083683;28;20244;-71
2022/04/23 03:13:47;;;;;;;0.10;0.10;;;;;;;;;;5089433;28;20230;-71
2022/04/23 03:16:13;;;;;;;0.10;0.10;;;;;;;;;;5082615;28;20243;-72
2022/04/23 03:18:40;;;;;;;0.10;0.10;;;;;;;;;;5090808;28;20250;-71
2022/04/23 03:21:07;;;;;;;0.10;0.10;;;;;;;;;;5081751;28;20241;-73
2022/04/23 03:23:33;;;;;;;0.10;0.10;;;;;;;;;;5091529;28;20505;-73
2022/04/23 03:26:00;;;;;;;0.10;0.10;;;;;;;;;;5080581;28;20243;-72
2022/04/23 03:28:26;;;;;;;0.13;0.13;;;;;;;;;;5092337;28;20236;-72
2022/04/23 03:30:53;;;;;;;0.10;0.10;;;;;;;;;;5079661;28;20265;-72
2022/04/23 03:33:19;;;;;;;0.10;0.10;;;;;;;;;;5092837;28;20437;-71
2022/04/23 03:35:45;;;;;;;0.10;0.10;;;;;;;;;;5078722;28;20583;-72
2022/04/23 03:38:13;;;;;;;0.10;0.10;;;;;;;;;;5093871;28;20455;-72
2022/04/23 03:40:40;;;;;;;0.10;0.10;;;;;;;;;;5078010;28;20425;-73
2022/04/23 03:43:06;;;;;;;0.10;0.10;;;;;;;;;;5094644;28;20206;-73
2022/04/23 03:45:33;;;;;;;0.13;0.13;;;;;;;;;;5076823;28;20286;-73
2022/04/23 03:48:01;;;;;;;0.10;0.10;;;;;;;;;;5095324;28;20203;-73
2022/04/23 03:50:28;;;;;;;0.10;0.10;;;;;;;;;;5076303;28;20286;-72
2022/04/23 03:52:56;;;;;;;0.10;0.10;;;;;;;;;;5095946;28;20197;-72
2022/04/23 03:55:26;;;;;;;0.10;0.10;;;;;;;;;;5075392;28;20226;-72
2022/04/23 03:57:54;;;;;;;0.10;0.10;;;;;;;;;;5096191;28;20236;-72
2022/04/23 04:00:21;;;;;;;0.10;0.10;;;;;;;;;;5074606;28;20472;-72
2022/04/23 04:02:47;;;;;;;0.10;0.10;;;;;;;;;;5096560;28;20204;-73
2022/04/23 04:05:14;;;;;;;0.10;0.10;;;;;;;;;;5073964;28;20195;-72
2022/04/23 04:07:43;;;;;;;0.10;0.10;;;;;;;;;;5097535;28;20213;-72
2022/04/23 04:10:10;;;;;;;0.10;0.10;;;;;;;;;;5073274;28;20204;-72
2022/04/23 04:12:38;;;;;;;0.10;0.10;;;;;;;;;;5098167;28;20210;-73
2022/04/23 04:15:05;;;;;;;0.10;0.10;;;;;;;;;;5079890;28;20285;-72
2022/04/23 04:17:31;;;;;;;0.10;0.10;;;;;;;;;;5098309;28;20439;-72
2022/04/23 04:19:58;;;;;;;0.10;0.10;;;;;;;;;;5082928;28;20208;-72
2022/04/23 04:22:25;;;;;;;0.10;0.10;;;;;;;;;;5088277;28;20245;-72
2022/04/23 04:24:51;;;;;;;0.10;0.10;;;;;;;;;;5082950;28;20207;-72
2022/04/23 04:27:17;;;;;;;0.10;0.10;;;;;;;;;;5088375;28;20559;-72
2022/04/23 04:29:45;;;;;;;0.10;0.10;;;;;;;;;;5083072;28;20204;-72
2022/04/23 04:32:12;;;;;;;0.20;0.20;;;;;;;;;;5088477;28;20267;-72
2022/04/23 04:34:39;;;;;;;0.10;0.10;;;;;;;;;;5082895;28;20407;-73
2022/04/23 04:37:06;;;;;;;0.10;0.10;;;;;;;;;;5088229;28;20499;-73
2022/04/23 04:39:33;;;;;;;0.10;0.10;;;;;;;;;;5082912;28;20358;-72
2022/04/23 04:41:59;;;;;;;0.10;0.10;;;;;;;;;;5087448;28;20270;-72
2022/04/23 04:44:25;;;;;;;0.10;0.10;;;;;;;;;;5083417;28;20434;-72
2022/04/23 04:46:53;;;;;;;0.10;0.10;;;;;;;;;;5086190;28;20293;-72
2022/04/23 04:49:22;;;;;;;0.10;0.10;;;;;;;;;;5084177;28;20265;-72
2022/04/23 04:51:48;;;;;;;0.10;0.10;;;;;;;;;;5085948;28;20273;-72
2022/04/23 04:54:17;;;;;;;0.10;0.10;;;;;;;;;;5084346;28;20502;-73
2022/04/23 04:56:44;;;;;;;0.10;0.10;;;;;;;;;;5085336;28;20302;-72
2022/04/23 04:59:10;;;;;;;0.10;0.10;;;;;;;;;;5085456;28;20249;-73
2022/04/23 05:01:36;;;;;;;0.10;0.10;;;;;;;;;;5084419;28;20243;-72
2022/04/23 05:04:04;;;;;;;0.10;0.10;;;;;;;;;;5086396;28;20245;-72
2022/04/23 05:06:30;;;;;;;0.10;0.10;;;;;;;;;;5083235;28;20244;-71
2022/04/23 05:08:56;;;;;;;0.10;0.10;;;;;;;;;;5086505;28;20241;-70
2022/04/23 05:11:23;;;;;;;0.10;0.10;;;;;;;;;;5082426;28;20251;-71
2022/04/23 05:13:49;;;;;;;0.10;0.10;;;;;;;;;;5090558;28;20209;-72
2022/04/23 05:16:15;;;;;;;0.10;0.10;;;;;;;;;;5085226;28;20332;-71
2022/04/23 05:18:41;;;;;;;0.10;0.10;;;;;;;;;;5092832;28;20210;-72
2022/04/23 05:21:09;;;;;;;0.10;0.10;;;;;;;;;;5083799;28;20255;-72
2022/04/23 05:23:36;;;;;;;0.10;0.10;;;;;;;;;;5093772;28;20243;-72
2022/04/23 05:26:03;;;;;;;0.10;0.10;;;;;;;;;;5083173;28;20452;-72
2022/04/23 05:28:29;;;;;;;0.10;0.10;;;;;;;;;;5094298;28;20250;-72
2022/04/23 05:30:55;;;;;;;0.10;0.10;;;;;;;;;;5082358;28;20475;-72
2022/04/23 05:33:22;;;;;;;0.10;0.10;;;;;;;;;;5095037;28;20223;-72
2022/04/23 05:35:48;;;;;;;0.10;0.10;;;;;;;;;;5081268;28;20306;-72
2022/04/23 05:38:18;;;;;;;0.10;0.10;;;;;;;;;;5095978;28;20230;-71
2022/04/23 05:40:44;;;;;;;0.10;0.10;;;;;;;;;;5080980;28;20283;-71
2022/04/23 05:43:11;;;;;;;0.10;0.10;;;;;;;;;;5095806;28;20206;-73
2022/04/23 05:45:37;;;;;;;0.10;0.10;;;;;;;;;;5079878;28;20450;-72
2022/04/23 05:48:04;;;;;;;0.10;0.10;;;;;;;;;;5097247;28;20498;-72
2022/04/23 05:50:30;;;;;;;0.10;0.10;;;;;;;;;;5078453;28;20272;-73
2022/04/23 05:52:56;;;;;;;0.10;0.10;;;;;;;;;;5097801;28;20439;-72
2022/04/23 05:55:24;;;;;;;0.10;0.10;;;;;;;;;;5077791;28;20262;-71
2022/04/23 05:57:50;;;;;;;0.10;0.10;;;;;;;;;;5098652;28;20213;-73
2022/04/23 06:00:17;;;;;;;0.10;0.10;;;;;;;;;;5076351;28;20205;-73
2022/04/23 06:02:43;;;;;;;0.27;0.27;;;;;;;;;;5100236;28;20272;-73
2022/04/23 06:05:12;;;;;;;0.10;0.10;;;;;;;;;;5076028;28;20242;-71
2022/04/23 06:07:38;;;;;;;0.10;0.10;;;;;;;;;;5100446;28;20208;-72
2022/04/23 06:10:05;;;;;;;0.10;0.10;;;;;;;;;;5083983;28;20203;-74
2022/04/23 06:12:40;;;;;;;0.10;0.10;;;;;;;;;;5100919;28;20225;-72
2022/04/23 06:15:07;;;;;;;0.17;0.17;;;;;;;;;;5085336;28;20255;-72
2022/04/23 06:17:33;;;;;;;0.10;0.10;;;;;;;;;;5073680;28;20209;-72
2022/04/23 06:20:00;;;;;;;0.10;0.10;;;;;;;;;;5084915;28;20212;-72
2022/04/23 06:22:26;;;;;;;0.10;0.10;;;;;;;;;;5090663;28;20252;-72
2022/04/23 06:24:56;;;;;;;0.10;0.10;;;;;;;;;;5084619;28;20460;-72
2022/04/23 06:27:22;;;;;;;0.10;0.10;;;;;;;;;;5090610;28;20564;-71
2022/04/23 06:29:49;;;;;;;0.10;0.10;;;;;;;;;;5084865;28;20197;-73
2022/04/23 06:32:16;;;;;;;0.10;0.10;;;;;;;;;;5090740;28;20250;-72
2022/04/23 06:34:42;;;;;;;0.10;0.10;;;;;;;;;;5084981;28;20208;-72
2022/04/23 06:37:08;;;;;;;0.10;0.10;;;;;;;;;;5090480;28;20244;-72
2022/04/23 06:39:35;;;;;;;0.57;0.57;;;;;;;;;;5084845;28;20335;-71
2022/04/23 06:42:02;;;;;;;0.10;0.10;;;;;;;;;;5089671;28;20245;-72
2022/04/23 06:44:28;;;;;;;0.10;0.10;;;;;;;;;;5084942;28;20203;-72
2022/04/23 06:46:55;;;;;;;0.10;0.10;;;;;;;;;;5088698;28;20251;-71
2022/04/23 06:49:23;;;;;;;0.10;0.10;;;;;;;;;;5086025;28;20210;-73
2022/04/23 06:51:49;;;;;;;0.10;0.10;;;;;;;;;;5088162;28;20245;-72
2022/04/23 06:54:15;;;;;;;0.10;0.10;;;;;;;;;;5086493;28;20435;-72
2022/04/23 06:56:42;;;;;;;0.10;0.10;;;;;;;;;;5086682;28;20438;-71
2022/04/23 06:59:08;;;;;;;0.10;0.10;;;;;;;;;;5087294;28;20617;-71
2022/04/23 07:01:35;;;;;;;0.10;0.10;;;;;;;;;;5085861;28;20253;-71
2022/04/23 07:04:02;;;;;;;0.10;0.10;;;;;;;;;;5088362;28;20203;-71
2022/04/23 07:06:28;;;;;;;0.10;0.10;;;;;;;;;;5084962;28;20294;-70
2022/04/23 07:08:55;;;;;;;0.10;0.10;;;;;;;;;;5088753;28;20211;-72
2022/04/23 07:11:21;;;;;;;0.10;0.10;;;;;;;;;;5083693;28;20296;-71
2022/04/23 07:13:48;;;;;;;0.10;0.10;;;;;;;;;;5089942;28;20204;-73
2022/04/23 07:16:16;;;;;;;0.10;0.10;;;;;;;;;;5082419;28;20240;-71
2022/04/23 07:18:42;;;;;;;0.10;0.10;;;;;;;;;;5090595;28;20204;-71
2022/04/23 07:21:10;;;;;;;0.10;0.10;;;;;;;;;;5081990;28;20240;-71
2022/04/23 07:26:20;;;;;;;0.03;0.03;;;;;;;;;;5083524;28;20298;-71
2022/04/23 07:28:46;;;;;;;0.10;0.10;;;;;;;;;;5089370;28;20203;-71
2022/04/23 07:31:13;;;;;;;0.00;0.00;;;;;;;;;;5082220;28;20255;-71
2022/04/23 07:39:08;;;;;;;0.00;0.00;;;;;;;;;;5086721;28;20244;-71
2022/04/23 07:41:34;;;;;;;0.10;0.10;;;;;;;;;;5085055;28;20270;-71
2022/04/23 07:44:00;;;;;;;0.10;0.10;;;;;;;;;;5087576;28;20267;-72
2022/04/23 07:46:26;;;;;;;0.10;0.10;;;;;;;;;;5083963;28;20458;-72
2022/04/23 07:48:53;;;;;;;0.10;0.10;;;;;;;;;;5088307;28;20204;-71
2022/04/23 07:51:20;;;;;;;0.10;0.10;;;;;;;;;;5082800;28;20294;-71
2022/04/23 07:53:48;;;;;;;0.10;0.10;;;;;;;;;;5089078;28;20400;-71
2022/04/23 07:56:14;;;;;;;0.10;0.10;;;;;;;;;;5081896;28;20266;-71
2022/04/23 07:58:41;;;;;;;0.00;0.00;;;;;;;;;;5089482;28;20203;-71
2022/04/23 08:01:07;;;;;;;0.10;0.10;;;;;;;;;;5080956;28;20238;-70
2022/04/23 08:03:34;;;;;;;0.10;0.10;;;;;;;;;;5090736;28;20424;-72
2022/04/23 08:06:01;;;;;;;0.10;0.10;;;;;;;;;;5080229;28;20245;-71
2022/04/23 08:08:27;;;;;;;0.10;0.10;;;;;;;;;;5091370;28;20243;-72
2022/04/23 08:10:55;;;;;;;0.10;0.10;;;;;;;;;;5079051;28;20242;-70
2022/04/23 08:13:21;;;;;;;0.10;0.10;;;;;;;;;;5092018;28;20210;-72
2022/04/23 08:15:47;;;;;;;0.10;0.10;;;;;;;;;;5078284;28;20241;-72
2022/04/23 08:18:13;;;;;;;0.10;0.10;;;;;;;;;;5093218;28;20240;-71
2022/04/23 08:20:41;;;;;;;0.00;0.00;;;;;;;;;;5077456;28;20306;-72
2022/04/23 08:23:07;;;;;;;0.10;0.10;;;;;;;;;;5093580;28;20271;-71
2022/04/23 08:25:33;;;;;;;0.00;0.00;;;;;;;;;;5076300;28;20239;-71
2022/04/23 08:30:41;;;;;;;0.03;0.03;;;;;;;;;;5077216;28;20240;-70
2022/04/23 08:33:08;;;;;;;0.10;0.10;;;;;;;;;;5093783;28;20207;-72
2022/04/23 08:35:35;;;;;;;0.10;0.10;;;;;;;;;;5076559;28;20426;-71
2022/04/23 08:38:01;;;;;;;0.10;0.10;;;;;;;;;;5094199;28;20235;-72
2022/04/23 08:40:29;;;;;;;0.10;0.10;;;;;;;;;;5075656;28;20472;-71
2022/04/23 08:42:55;;;;;;;0.10;0.10;;;;;;;;;;5095122;28;20206;-71
2022/04/23 08:45:22;;;;;;;0.00;0.00;;;;;;;;;;5074976;28;20275;-70
2022/04/23 08:47:51;;;;;;;0.10;0.10;;;;;;;;;;5099133;28;20266;-68
2022/04/23 08:50:17;;;;;;;0.10;0.10;;;;;;;;;;5078489;28;20296;-68
2022/04/23 08:52:46;;;;;;;0.10;0.10;;;;;;;;;;5100915;28;20204;-69
2022/04/23 08:55:14;;;;;;;0.07;0.07;;;;;;;;;;5077690;28;20203;-71
2022/04/23 08:57:41;;;;;;;0.00;0.00;;;;;;;;;;5101089;28;20274;-70
2022/04/23 09:00:08;;;;;;;0.00;0.00;;;;;;;;;;5076885;28;20206;-69
2022/04/23 09:02:36;;;;;;;0.03;0.03;;;;;;;;;;5101764;28;20211;-70
2022/04/23 09:05:03;;;;;;;0.10;0.10;;;;;;;;;;5086411;28;20206;-69
2022/04/23 09:07:29;;;;;;;0.00;0.00;;;;;;;;;;5092024;28;20550;-69
2022/04/23 09:09:57;;;;;;;0.10;0.10;;;;;;;;;;5086706;28;20370;-71
2022/04/23 09:12:24;;;;;;;0.00;0.00;;;;;;;;;;5092052;28;20264;-70
2022/04/23 09:14:50;;;;;;;0.03;0.03;;;;;;;;;;5086609;28;20221;-69
2022/04/23 09:25:40;;;;;;;0.10;0.10;;;;;;;;;;5080320;28;20285;-73
2022/04/23 09:28:22;;;;;;;0.10;0.10;;;;;;;;;;5096591;28;20200;-73
2022/04/23 09:30:50;;;;;;;0.10;0.10;;;;;;;;;;5081440;28;20242;-80
2022/04/23 09:33:16;;;;;;;0.10;0.10;;;;;;;;;;5095834;28;20449;-74
2022/04/23 09:35:57;;;;;;;0.10;0.10;;;;;;;;;;5080652;28;20401;-74
2022/04/23 09:38:27;;;;;;;0.10;0.10;;;;;;;;;;5094321;28;20499;-75
2022/04/23 09:40:55;;;;;;;0.10;0.10;;;;;;;;;;5081064;28;20245;-75
2022/04/23 09:43:26;;;;;;;0.10;0.10;;;;;;;;;;5094944;28;20238;-77
2022/04/23 09:45:59;;;;;;;0.00;0.00;;;;;;;;;;5081739;28;20274;-69
2022/04/23 09:48:26;;;;;;;0.20;0.20;;;;;;;;;;5094431;28;20205;-72
2022/04/23 09:50:52;;;;;;;0.00;0.00;;;;;;;;;;5081796;28;20238;-78
2022/04/23 09:53:21;;;;;;;0.00;0.00;;;;;;;;;;5095128;28;20252;-72
2022/04/23 09:55:48;;;;;;;0.03;0.03;;;;;;;;;;5081001;28;20230;-74
2022/04/23 09:58:16;;;;;;;0.10;0.10;;;;;;;;;;5095306;28;20241;-72
2022/04/23 10:00:43;;;;;;;0.00;0.00;;;;;;;;;;5080323;28;20249;-67
2022/04/23 10:03:10;;;;;;;0.10;0.10;;;;;;;;;;5096111;28;20764;-71
2022/04/23 10:05:38;;;;;;;0.00;0.00;;;;;;;;;;5079146;28;20254;-73
2022/04/23 10:08:09;;;;;;;0.10;0.10;;;;;;;;;;5096838;28;20274;-74
2022/04/23 10:10:40;;;;;;;0.05;0.05;;;;;;;;;;5079059;28;20320;-74
2022/04/23 10:13:08;;;;;;;0.10;0.10;;;;;;;;;;5097065;28;20457;-74
2022/04/23 10:15:37;;;;;;;0.00;0.00;;;;;;;;;;5078839;28;20316;-74
2022/04/23 10:18:04;;;;;;;0.00;0.00;;;;;;;;;;5096595;28;20251;-74
2022/04/23 10:20:31;;;;;;;0.03;0.03;;;;;;;;;;5078196;28;20253;-74
2022/04/23 10:23:00;;;;;;;0.00;0.00;;;;;;;;;;5097231;28;20214;-75
2022/04/23 10:25:30;;;;;;;0.00;0.00;;;;;;;;;;5076610;28;20253;-73
2022/04/23 10:28:00;;;;;;;0.00;0.00;;;;;;;;;;5097704;28;20436;-75
2022/04/23 10:30:26;;;;;;;0.00;0.00;;;;;;;;;;5077694;28;20290;-73
2022/04/23 10:32:53;;;;;;;0.00;0.00;;;;;;;;;;5097574;28;20253;-74
2022/04/23 10:35:32;;;;;;;0.10;0.10;;;;;;;;;;5076535;28;20222;-73
2022/04/23 10:38:00;;;;;;;0.00;0.00;;;;;;;;;;5096869;28;20233;-73
2022/04/23 10:40:26;;;;;;;0.00;0.00;;;;;;;;;;5077804;28;20252;-74
2022/04/23 10:43:09;;;;;;;0.00;0.00;;;;;;;;;;5097509;28;20392;-74
2022/04/23 10:45:36;;;;;;;0.00;0.00;;;;;;;;;;5078748;28;20486;-74
2022/04/23 10:48:22;;;;;;;0.10;0.10;;;;;;;;;;5096028;28;20268;-75
2022/04/23 10:50:59;;;;;;;0.00;0.00;;;;;;;;;;5080349;28;20239;-75
2022/04/23 10:53:29;;;;;;;0.00;0.00;;;;;;;;;;5093401;28;20207;-71
2022/04/23 10:56:07;;;;;;;0.00;0.00;;;;;;;;;;5080776;28;20243;-74
2022/04/23 10:58:37;;;;;;;0.00;0.00;;;;;;;;;;5092458;28;20235;-72
2022/04/23 11:01:20;;;;;;;0.00;0.00;;;;;;;;;;5081840;28;20248;-76
2022/04/23 11:03:50;;;;;;;0.03;0.03;;;;;;;;;;5089815;28;20448;-73
2022/04/23 11:12:18;;;;;;;0.03;0.03;;;;;;;;;;5088477;28;20592;-73
2022/04/23 11:14:48;;;;;;;0.00;0.00;;;;;;;;;;5084094;28;20194;-73
2022/04/23 11:17:16;;;;;;;0.00;0.00;;;;;;;;;;5089709;28;20278;-72
2022/04/23 11:19:42;;;;;;;0.00;0.00;;;;;;;;;;5084282;28;20206;-71
2022/04/23 11:22:10;;;;;;;0.00;0.00;;;;;;;;;;5089592;28;20243;-72
2022/04/23 11:24:37;;;;;;;0.10;0.10;;;;;;;;;;5083759;28;20207;-73
2022/04/23 11:27:03;;;;;;;0.00;0.00;;;;;;;;;;5089039;28;20246;-70
2022/04/23 11:29:29;;;;;;;0.10;0.10;;;;;;;;;;5084079;28;20203;-71
2022/04/23 11:31:58;;;;;;;0.00;0.00;;;;;;;;;;5087953;28;20342;-72
2022/04/23 11:34:24;;;;;;;0.00;0.00;;;;;;;;;;5084718;28;20208;-72
2022/04/23 11:36:51;;;;;;;0.10;0.10;;;;;;;;;;5087070;28;20236;-73
2022/04/23 11:39:18;;;;;;;0.00;0.00;;;;;;;;;;5085339;28;20203;-73
2022/04/23 11:41:48;;;;;;;0.10;0.10;;;;;;;;;;5086107;28;20239;-72
2022/04/23 11:44:15;;;;;;;0.00;0.00;;;;;;;;;;5085720;28;20194;-73
2022/04/23 11:46:42;;;;;;;0.00;0.00;;;;;;;;;;5085855;28;20269;-72
2022/04/23 11:49:10;;;;;;;0.05;0.05;;;;;;;;;;5086169;28;20406;-74
2022/04/23 11:51:40;;;;;;;0.00;0.00;;;;;;;;;;5085132;28;20268;-73
2022/04/23 11:54:07;;;;;;;0.00;0.00;;;;;;;;;;5086561;28;20203;-72
2022/04/23 11:56:34;;;;;;;0.10;0.10;;;;;;;;;;5084323;28;20238;-72
2022/04/23 11:59:02;;;;;;;0.10;0.10;;;;;;;;;;5087119;28;20218;-72
2022/04/23 12:01:29;;;;;;;0.00;0.00;;;;;;;;;;5083211;28;20244;-73
2022/04/23 12:03:56;;;;;;;0.10;0.10;;;;;;;;;;5088583;28;20522;-72
2022/04/23 12:06:24;;;;;;;0.05;0.05;;;;;;;;;;5082952;28;20293;-74
2022/04/23 12:08:50;;;;;;;0.10;0.10;;;;;;;;;;5088663;28;20226;-72
2022/04/23 12:11:23;;;;;;;0.00;0.00;;;;;;;;;;5082221;28;20297;-73
2022/04/23 12:13:49;;;;;;;0.10;0.10;;;;;;;;;;5088284;28;20245;-72
2022/04/23 12:16:28;;;;;;;0.00;0.00;;;;;;;;;;5082087;28;20336;-74
2022/04/23 12:18:58;;;;;;;0.10;0.10;;;;;;;;;;5088138;28;20418;-73
2022/04/23 12:21:25;;;;;;;0.10;0.10;;;;;;;;;;5082782;28;20481;-72
2022/04/23 12:23:51;;;;;;;0.10;0.10;;;;;;;;;;5088291;28;20255;-72
2022/04/23 12:26:21;;;;;;;0.10;0.10;;;;;;;;;;5082317;28;20278;-72
2022/04/23 12:42:52;;;;;;;0.07;0.07;;;;;;;;;;5095710;28;20209;-72
2022/04/23 12:45:21;;;;;;;0.00;0.00;;;;;;;;;;5074408;28;20204;-73
2022/04/23 12:47:47;;;;;;;0.10;0.10;;;;;;;;;;5096310;28;20214;-72
2022/04/23 12:50:25;;;;;;;0.00;0.00;;;;;;;;;;5073796;28;20514;-73
2022/04/23 12:52:53;;;;;;;0.10;0.10;;;;;;;;;;5095723;28;20255;-73
2022/04/23 12:55:21;;;;;;;0.00;0.00;;;;;;;;;;5074504;28;20246;-73
2022/04/23 12:57:48;;;;;;;0.10;0.10;;;;;;;;;;5096150;28;20230;-72
2022/04/23 13:00:16;;;;;;;0.10;0.10;;;;;;;;;;5073500;28;20206;-73
2022/04/23 13:02:43;;;;;;;0.10;0.10;;;;;;;;;;5096785;28;20237;-73
2022/04/23 13:05:12;;;;;;;0.00;0.00;;;;;;;;;;5073158;28;20274;-71
2022/04/23 13:10:24;;;;;;;0.00;0.00;;;;;;;;;;5074771;28;20243;-72
2022/04/23 13:12:50;;;;;;;0.03;0.03;;;;;;;;;;5095770;28;20231;-72
2022/04/23 13:15:16;;;;;;;0.10;0.10;;;;;;;;;;5073928;28;20204;-72
2022/04/23 13:17:43;;;;;;;0.10;0.10;;;;;;;;;;5096430;28;20531;-72
2022/04/23 13:20:10;;;;;;;0.10;0.10;;;;;;;;;;5073102;28;20232;-72
2022/04/23 13:22:37;;;;;;;0.10;0.10;;;;;;;;;;5097488;28;20263;-73
2022/04/23 13:25:03;;;;;;;0.10;0.10;;;;;;;;;;5082474;28;20211;-72
2022/04/23 13:27:31;;;;;;;0.00;0.00;;;;;;;;;;5091050;28;20256;-73
2022/04/23 13:29:57;;;;;;;0.10;0.10;;;;;;;;;;5102311;28;20204;-73
2022/04/23 13:32:24;;;;;;;0.00;0.00;;;;;;;;;;5090937;28;20275;-73
2022/04/23 13:34:50;;;;;;;0.00;0.00;;;;;;;;;;5105034;28;20434;-73
2022/04/23 13:37:16;;;;;;;0.10;0.10;;;;;;;;;;5094499;28;20295;-73
2022/04/23 13:39:43;;;;;;;0.10;0.10;;;;;;;;;;5106013;28;20207;-72
2022/04/23 13:42:09;;;;;;;0.10;0.10;;;;;;;;;;5094510;28;20578;-73
2022/04/23 13:44:37;;;;;;;0.10;0.10;;;;;;;;;;5106350;28;20438;-72
2022/04/23 13:47:03;;;;;;;0.05;0.05;;;;;;;;;;5094604;28;20288;-72
2022/04/23 13:49:29;;;;;;;0.00;0.00;;;;;;;;;;5106347;28;20517;-71
2022/04/23 13:51:56;;;;;;;0.20;0.20;;;;;;;;;;5094462;28;20309;-72
2022/04/23 13:54:22;;;;;;;0.05;0.05;;;;;;;;;;5105971;28;20578;-72
2022/04/23 13:56:49;;;;;;;0.10;0.10;;;;;;;;;;5094401;28;20249;-72
2022/04/23 13:59:15;;;;;;;0.10;0.10;;;;;;;;;;5106109;28;20204;-72
2022/04/23 14:10:04;;;;;;;0.10;0.10;;;;;;;;;;5094737;28;20572;-72
2022/04/23 14:10:18;;;;;;;0.10;0.10;;;;;;;;;;5032230;28;20179;-74
2022/04/23 14:12:44;;;;;;;0.00;0.00;;;;;;;;;;5029185;28;20209;-72
2022/04/23 14:15:11;;;;;;;0.00;0.00;;;;;;;;;;5059091;28;20203;-72
2022/04/23 14:17:39;;;;;;;0.10;0.10;;;;;;;;;;5084632;28;20449;-72
2022/04/23 14:20:06;;;;;;;0.10;0.10;;;;;;;;;;5080438;28;20218;-71
2022/04/23 14:22:32;;;;;;;0.00;0.00;;;;;;;;;;5100500;28;20280;-73
2022/04/23 14:24:59;;;;;;;0.00;0.00;;;;;;;;;;5084941;28;20205;-73
2022/04/23 14:27:26;;;;;;;0.00;0.00;;;;;;;;;;5090860;28;20298;-74
2022/04/23 14:29:52;;;;;;;0.03;0.03;;;;;;;;;;5085065;28;20419;-73
2022/04/23 14:32:19;;;;;;;0.10;0.10;;;;;;;;;;5090488;28;20257;-73
2022/04/23 14:34:47;;;;;;;0.10;0.10;;;;;;;;;;5085213;28;20226;-73
2022/04/23 14:37:14;;;;;;;0.20;0.20;;;;;;;;;;5090347;28;20254;-73
2022/04/23 14:39:40;;;;;;;0.00;0.00;;;;;;;;;;5084739;28;20241;-73
2022/04/23 14:42:07;;;;;;;0.00;0.00;;;;;;;;;;5090348;28;20244;-73
2022/04/23 14:44:34;;;;;;;0.10;0.10;;;;;;;;;;5084652;28;20240;-73
2022/04/23 14:47:03;;;;;;;0.10;0.10;;;;;;;;;;5089411;28;20264;-73
2022/04/23 14:49:29;;;;;;;0.10;0.10;;;;;;;;;;5085022;28;20249;-72
2022/04/23 14:54:46;;;;;;;0.00;0.00;;;;;;;;;;5045959;28;20258;-72
2022/04/23 14:57:12;;;;;;;0.10;0.10;;;;;;;;;;5089904;28;20467;-73
2022/04/23 14:59:38;;;;;;;0.03;0.03;;;;;;;;;;5084432;28;20403;-74
2022/04/23 15:02:05;;;;;;;0.10;0.10;;;;;;;;;;5089998;28;20275;-73
2022/04/23 15:04:32;;;;;;;0.00;0.00;;;;;;;;;;5084573;28;20433;-66
2022/04/23 15:06:59;;;;;;;0.10;0.10;;;;;;;;;;5088775;28;20308;-66
2022/04/23 15:09:26;;;;;;;0.10;0.10;;;;;;;;;;5084561;28;20201;-65
2022/04/23 15:11:52;;;;;;;0.10;0.10;;;;;;;;;;5087837;28;20260;-66
2022/04/23 15:14:19;;;;;;;0.10;0.10;;;;;;;;;;5085704;28;20239;-67
2022/04/23 15:16:45;;;;;;;0.07;0.07;;;;;;;;;;5086728;28;20239;-67
2022/04/23 15:19:11;;;;;;;0.10;0.10;;;;;;;;;;5086697;28;20224;-66
2022/04/23 15:21:37;;;;;;;0.10;0.10;;;;;;;;;;5085617;28;20276;-66
2022/04/23 15:24:05;;;;;;;0.10;0.10;;;;;;;;;;5087590;28;20209;-66
2022/04/23 15:26:32;;;;;;;0.03;0.03;;;;;;;;;;5084648;28;20245;-67
2022/04/23 15:28:58;;;;;;;0.10;0.10;;;;;;;;;;5088060;28;20203;-66
2022/04/23 15:31:24;;;;;;;0.00;0.00;;;;;;;;;;5083473;28;20269;-66
2022/04/23 15:33:51;;;;;;;0.10;0.10;;;;;;;;;;5088548;28;20206;-66
2022/04/23 15:36:19;;;;;;;0.10;0.10;;;;;;;;;;5082720;28;20281;-66
2022/04/23 15:38:45;;;;;;;0.00;0.00;;;;;;;;;;5089385;28;20235;-67